sensor_id;sensor_type;location;lat;lon;timestamp;P1;durP1;ratioP1;P2;durP2;ratioP2
53961;SDS011;39868;53.398;6.564;2022-08-21T00:01:02;3.67;;;2.67;;
53961;SDS011;39868;53.398;6.564;2022-08-21T00:03:33;5.53;;;2.80;;
53961;SDS011;39868;53.398;6.564;2022-08-21T00:06:01;3.70;;;2.80;;
53961;SDS011;39868;53.398;6.564;2022-08-21T00:08:28;4.68;;;2.88;;
53961;SDS011;39868;53.398;6.564;2022-08-21T00:10:56;4.25;;;2.72;;
53961;SDS011;39868;53.398;6.564;2022-08-21T00:13:24;4.30;;;2.60;;
53961;SDS011;39868;53.398;6.564;2022-08-21T00:15:52;7.30;;;3.08;;
53961;SDS011;39868;53.398;6.564;2022-08-21T00:18:19;3.53;;;2.42;;
53961;SDS011;39868;53.398;6.564;2022-08-21T00:20:47;4.60;;;2.63;;
53961;SDS011;39868;53.398;6.564;2022-08-21T00:23:15;5.35;;;2.78;;
53961;SDS011;39868;53.398;6.564;2022-08-21T00:25:43;5.85;;;2.97;;
53961;SDS011;39868;53.398;6.564;2022-08-21T00:28:12;6.28;;;2.70;;
53961;SDS011;39868;53.398;6.564;2022-08-21T00:30:40;6.13;;;2.70;;
53961;SDS011;39868;53.398;6.564;2022-08-21T00:33:09;6.07;;;3.00;;
53961;SDS011;39868;53.398;6.564;2022-08-21T00:35:38;6.45;;;2.92;;
53961;SDS011;39868;53.398;6.564;2022-08-21T00:38:07;3.88;;;2.70;;
53961;SDS011;39868;53.398;6.564;2022-08-21T00:40:47;4.30;;;2.83;;
53961;SDS011;39868;53.398;6.564;2022-08-21T00:43:21;6.82;;;3.30;;
53961;SDS011;39868;53.398;6.564;2022-08-21T00:45:51;4.77;;;2.83;;
53961;SDS011;39868;53.398;6.564;2022-08-21T00:48:20;4.57;;;2.88;;
53961;SDS011;39868;53.398;6.564;2022-08-21T00:50:49;4.70;;;2.88;;
53961;SDS011;39868;53.398;6.564;2022-08-21T00:53:21;6.18;;;3.10;;
53961;SDS011;39868;53.398;6.564;2022-08-21T00:55:50;4.80;;;3.28;;
53961;SDS011;39868;53.398;6.564;2022-08-21T00:58:22;8.10;;;3.50;;
53961;SDS011;39868;53.398;6.564;2022-08-21T01:00:51;3.83;;;3.03;;
53961;SDS011;39868;53.398;6.564;2022-08-21T01:03:20;7.65;;;3.00;;
53961;SDS011;39868;53.398;6.564;2022-08-21T01:05:49;4.63;;;2.83;;
53961;SDS011;39868;53.398;6.564;2022-08-21T01:08:19;7.70;;;3.00;;
53961;SDS011;39868;53.398;6.564;2022-08-21T01:10:47;5.15;;;3.00;;
53961;SDS011;39868;53.398;6.564;2022-08-21T01:13:24;4.10;;;2.88;;
53961;SDS011;39868;53.398;6.564;2022-08-21T01:15:54;5.70;;;2.88;;
53961;SDS011;39868;53.398;6.564;2022-08-21T01:18:23;4.45;;;2.80;;
53961;SDS011;39868;53.398;6.564;2022-08-21T01:20:59;4.03;;;3.22;;
53961;SDS011;39868;53.398;6.564;2022-08-21T01:23:28;4.15;;;2.70;;
53961;SDS011;39868;53.398;6.564;2022-08-21T01:25:56;8.40;;;3.10;;
53961;SDS011;39868;53.398;6.564;2022-08-21T01:28:24;3.75;;;2.83;;
53961;SDS011;39868;53.398;6.564;2022-08-21T01:30:53;7.70;;;3.20;;
53961;SDS011;39868;53.398;6.564;2022-08-21T01:33:22;5.55;;;3.50;;
53961;SDS011;39868;53.398;6.564;2022-08-21T01:35:51;3.55;;;2.88;;
53961;SDS011;39868;53.398;6.564;2022-08-21T01:38:19;4.60;;;2.95;;
53961;SDS011;39868;53.398;6.564;2022-08-21T01:40:47;4.68;;;3.03;;
53961;SDS011;39868;53.398;6.564;2022-08-21T01:43:14;5.20;;;2.47;;
53961;SDS011;39868;53.398;6.564;2022-08-21T01:45:49;5.07;;;2.67;;
53961;SDS011;39868;53.398;6.564;2022-08-21T01:48:17;6.65;;;2.63;;
53961;SDS011;39868;53.398;6.564;2022-08-21T01:50:45;4.85;;;2.53;;
53961;SDS011;39868;53.398;6.564;2022-08-21T01:53:18;6.78;;;3.08;;
53961;SDS011;39868;53.398;6.564;2022-08-21T01:55:53;5.22;;;2.40;;
53961;SDS011;39868;53.398;6.564;2022-08-21T01:58:21;5.10;;;2.58;;
53961;SDS011;39868;53.398;6.564;2022-08-21T02:00:49;3.40;;;2.65;;
53961;SDS011;39868;53.398;6.564;2022-08-21T02:03:18;3.72;;;2.40;;
53961;SDS011;39868;53.398;6.564;2022-08-21T02:06:02;3.85;;;2.40;;
53961;SDS011;39868;53.398;6.564;2022-08-21T02:08:31;5.22;;;2.90;;
53961;SDS011;39868;53.398;6.564;2022-08-21T02:10:59;5.05;;;2.53;;
53961;SDS011;39868;53.398;6.564;2022-08-21T02:13:26;4.70;;;2.97;;
53961;SDS011;39868;53.398;6.564;2022-08-21T02:15:54;4.63;;;2.55;;
53961;SDS011;39868;53.398;6.564;2022-08-21T02:18:22;7.47;;;2.67;;
53961;SDS011;39868;53.398;6.564;2022-08-21T02:20:50;6.00;;;2.90;;
53961;SDS011;39868;53.398;6.564;2022-08-21T02:23:22;3.00;;;2.53;;
53961;SDS011;39868;53.398;6.564;2022-08-21T02:26:03;4.00;;;2.67;;
53961;SDS011;39868;53.398;6.564;2022-08-21T02:28:33;3.13;;;2.65;;
53961;SDS011;39868;53.398;6.564;2022-08-21T02:31:02;5.22;;;2.83;;
53961;SDS011;39868;53.398;6.564;2022-08-21T02:33:30;6.25;;;3.13;;
53961;SDS011;39868;53.398;6.564;2022-08-21T02:35:58;6.10;;;2.95;;
53961;SDS011;39868;53.398;6.564;2022-08-21T02:38:27;7.63;;;2.85;;
53961;SDS011;39868;53.398;6.564;2022-08-21T02:40:57;5.53;;;3.03;;
53961;SDS011;39868;53.398;6.564;2022-08-21T02:43:26;4.80;;;2.75;;
53961;SDS011;39868;53.398;6.564;2022-08-21T02:45:55;5.22;;;2.55;;
53961;SDS011;39868;53.398;6.564;2022-08-21T02:48:25;4.57;;;2.80;;
53961;SDS011;39868;53.398;6.564;2022-08-21T02:50:55;6.65;;;2.80;;
53961;SDS011;39868;53.398;6.564;2022-08-21T02:53:25;4.15;;;2.50;;
53961;SDS011;39868;53.398;6.564;2022-08-21T02:55:55;4.65;;;2.53;;
53961;SDS011;39868;53.398;6.564;2022-08-21T02:58:26;5.70;;;3.20;;
53961;SDS011;39868;53.398;6.564;2022-08-21T03:00:58;6.07;;;2.83;;
53961;SDS011;39868;53.398;6.564;2022-08-21T03:03:26;3.78;;;2.63;;
53961;SDS011;39868;53.398;6.564;2022-08-21T03:05:54;7.57;;;3.00;;
53961;SDS011;39868;53.398;6.564;2022-08-21T03:08:22;5.40;;;2.45;;
53961;SDS011;39868;53.398;6.564;2022-08-21T03:10:53;5.68;;;2.95;;
53961;SDS011;39868;53.398;6.564;2022-08-21T03:13:21;6.38;;;2.95;;
53961;SDS011;39868;53.398;6.564;2022-08-21T03:15:49;5.25;;;3.10;;
53961;SDS011;39868;53.398;6.564;2022-08-21T03:18:17;4.28;;;2.30;;
53961;SDS011;39868;53.398;6.564;2022-08-21T03:20:45;3.80;;;2.60;;
53961;SDS011;39868;53.398;6.564;2022-08-21T03:23:13;3.47;;;2.58;;
53961;SDS011;39868;53.398;6.564;2022-08-21T03:25:44;6.45;;;2.72;;
53961;SDS011;39868;53.398;6.564;2022-08-21T03:28:17;4.95;;;2.67;;
53961;SDS011;39868;53.398;6.564;2022-08-21T03:30:48;6.82;;;3.25;;
53961;SDS011;39868;53.398;6.564;2022-08-21T03:33:18;5.25;;;2.53;;
53961;SDS011;39868;53.398;6.564;2022-08-21T03:35:54;5.70;;;2.92;;
53961;SDS011;39868;53.398;6.564;2022-08-21T03:38:28;3.70;;;2.50;;
53961;SDS011;39868;53.398;6.564;2022-08-21T03:40:58;6.70;;;2.90;;
53961;SDS011;39868;53.398;6.564;2022-08-21T03:43:27;7.22;;;3.45;;
53961;SDS011;39868;53.398;6.564;2022-08-21T03:45:58;6.22;;;3.28;;
53961;SDS011;39868;53.398;6.564;2022-08-21T03:48:32;5.97;;;3.47;;
53961;SDS011;39868;53.398;6.564;2022-08-21T03:51:01;7.07;;;3.53;;
53961;SDS011;39868;53.398;6.564;2022-08-21T03:53:28;7.93;;;3.40;;
53961;SDS011;39868;53.398;6.564;2022-08-21T03:55:57;6.47;;;3.13;;
53961;SDS011;39868;53.398;6.564;2022-08-21T03:58:25;6.30;;;3.10;;
53961;SDS011;39868;53.398;6.564;2022-08-21T04:00:55;7.30;;;3.03;;
53961;SDS011;39868;53.398;6.564;2022-08-21T04:03:24;7.05;;;3.30;;
53961;SDS011;39868;53.398;6.564;2022-08-21T04:05:53;6.88;;;3.97;;
53961;SDS011;39868;53.398;6.564;2022-08-21T04:08:21;7.15;;;3.42;;
53961;SDS011;39868;53.398;6.564;2022-08-21T04:10:49;6.40;;;3.53;;
53961;SDS011;39868;53.398;6.564;2022-08-21T04:13:20;7.03;;;3.33;;
53961;SDS011;39868;53.398;6.564;2022-08-21T04:15:48;7.15;;;3.13;;
53961;SDS011;39868;53.398;6.564;2022-08-21T04:18:16;5.93;;;3.25;;
53961;SDS011;39868;53.398;6.564;2022-08-21T04:20:44;7.50;;;3.42;;
53961;SDS011;39868;53.398;6.564;2022-08-21T04:23:16;6.32;;;3.33;;
53961;SDS011;39868;53.398;6.564;2022-08-21T04:25:50;6.40;;;2.95;;
53961;SDS011;39868;53.398;6.564;2022-08-21T04:28:21;5.45;;;3.00;;
53961;SDS011;39868;53.398;6.564;2022-08-21T04:30:56;5.22;;;2.95;;
53961;SDS011;39868;53.398;6.564;2022-08-21T04:33:23;8.18;;;3.28;;
53961;SDS011;39868;53.398;6.564;2022-08-21T04:35:51;6.28;;;3.20;;
53961;SDS011;39868;53.398;6.564;2022-08-21T04:38:19;4.80;;;2.90;;
53961;SDS011;39868;53.398;6.564;2022-08-21T04:40:47;5.70;;;2.80;;
53961;SDS011;39868;53.398;6.564;2022-08-21T04:43:16;4.30;;;3.03;;
53961;SDS011;39868;53.398;6.564;2022-08-21T04:45:45;7.63;;;3.35;;
53961;SDS011;39868;53.398;6.564;2022-08-21T04:48:16;6.07;;;2.58;;
53961;SDS011;39868;53.398;6.564;2022-08-21T04:53:28;4.50;;;2.75;;
53961;SDS011;39868;53.398;6.564;2022-08-21T04:56:01;7.03;;;3.10;;
53961;SDS011;39868;53.398;6.564;2022-08-21T04:58:39;6.50;;;2.70;;
53961;SDS011;39868;53.398;6.564;2022-08-21T05:01:11;6.05;;;3.05;;
53961;SDS011;39868;53.398;6.564;2022-08-21T05:03:52;5.32;;;2.72;;
53961;SDS011;39868;53.398;6.564;2022-08-21T05:06:22;5.60;;;2.83;;
53961;SDS011;39868;53.398;6.564;2022-08-21T05:08:52;7.53;;;3.05;;
53961;SDS011;39868;53.398;6.564;2022-08-21T05:11:28;6.47;;;3.22;;
53961;SDS011;39868;53.398;6.564;2022-08-21T05:13:57;4.80;;;2.90;;
53961;SDS011;39868;53.398;6.564;2022-08-21T05:16:25;5.35;;;2.97;;
53961;SDS011;39868;53.398;6.564;2022-08-21T05:19:04;5.93;;;3.42;;
53961;SDS011;39868;53.398;6.564;2022-08-21T05:21:35;4.15;;;2.63;;
53961;SDS011;39868;53.398;6.564;2022-08-21T05:24:05;3.90;;;2.72;;
53961;SDS011;39868;53.398;6.564;2022-08-21T05:26:33;5.65;;;2.63;;
53961;SDS011;39868;53.398;6.564;2022-08-21T05:29:12;4.03;;;2.30;;
53961;SDS011;39868;53.398;6.564;2022-08-21T05:31:42;4.53;;;3.38;;
53961;SDS011;39868;53.398;6.564;2022-08-21T05:34:11;6.22;;;2.78;;
53961;SDS011;39868;53.398;6.564;2022-08-21T05:36:42;5.03;;;2.42;;
53961;SDS011;39868;53.398;6.564;2022-08-21T05:39:11;4.47;;;2.67;;
53961;SDS011;39868;53.398;6.564;2022-08-21T05:41:38;5.65;;;2.67;;
53961;SDS011;39868;53.398;6.564;2022-08-21T05:44:06;8.25;;;3.53;;
53961;SDS011;39868;53.398;6.564;2022-08-21T05:46:36;5.10;;;2.78;;
53961;SDS011;39868;53.398;6.564;2022-08-21T05:49:04;3.40;;;2.47;;
53961;SDS011;39868;53.398;6.564;2022-08-21T05:51:32;5.63;;;2.55;;
53961;SDS011;39868;53.398;6.564;2022-08-21T05:54:00;6.07;;;2.92;;
53961;SDS011;39868;53.398;6.564;2022-08-21T05:56:29;7.75;;;2.88;;
53961;SDS011;39868;53.398;6.564;2022-08-21T05:58:56;4.53;;;2.72;;
53961;SDS011;39868;53.398;6.564;2022-08-21T06:01:24;4.45;;;3.10;;
53961;SDS011;39868;53.398;6.564;2022-08-21T06:03:52;5.82;;;2.65;;
53961;SDS011;39868;53.398;6.564;2022-08-21T06:06:22;5.78;;;2.88;;
53961;SDS011;39868;53.398;6.564;2022-08-21T06:08:50;6.80;;;3.17;;
53961;SDS011;39868;53.398;6.564;2022-08-21T06:11:19;4.45;;;2.97;;
53961;SDS011;39868;53.398;6.564;2022-08-21T06:13:53;5.80;;;2.72;;
53961;SDS011;39868;53.398;6.564;2022-08-21T06:16:21;6.85;;;2.88;;
53961;SDS011;39868;53.398;6.564;2022-08-21T06:18:49;6.10;;;3.13;;
53961;SDS011;39868;53.398;6.564;2022-08-21T06:21:17;6.10;;;2.90;;
53961;SDS011;39868;53.398;6.564;2022-08-21T06:23:45;6.28;;;2.83;;
53961;SDS011;39868;53.398;6.564;2022-08-21T06:26:13;4.45;;;3.17;;
53961;SDS011;39868;53.398;6.564;2022-08-21T06:28:41;8.70;;;2.80;;
53961;SDS011;39868;53.398;6.564;2022-08-21T06:31:13;4.95;;;3.00;;
53961;SDS011;39868;53.398;6.564;2022-08-21T06:33:42;4.72;;;2.85;;
53961;SDS011;39868;53.398;6.564;2022-08-21T06:36:10;5.32;;;3.00;;
53961;SDS011;39868;53.398;6.564;2022-08-21T06:38:38;4.07;;;2.80;;
53961;SDS011;39868;53.398;6.564;2022-08-21T06:41:06;3.90;;;2.65;;
53961;SDS011;39868;53.398;6.564;2022-08-21T06:43:35;6.68;;;2.70;;
53961;SDS011;39868;53.398;6.564;2022-08-21T06:46:06;4.55;;;3.10;;
53961;SDS011;39868;53.398;6.564;2022-08-21T06:48:34;5.88;;;2.85;;
53961;SDS011;39868;53.398;6.564;2022-08-21T06:51:02;5.07;;;2.95;;
53961;SDS011;39868;53.398;6.564;2022-08-21T06:53:30;5.07;;;3.08;;
53961;SDS011;39868;53.398;6.564;2022-08-21T06:55:58;5.10;;;2.63;;
53961;SDS011;39868;53.398;6.564;2022-08-21T06:58:25;4.30;;;2.70;;
53961;SDS011;39868;53.398;6.564;2022-08-21T07:00:53;4.57;;;3.15;;
53961;SDS011;39868;53.398;6.564;2022-08-21T07:03:28;5.85;;;3.25;;
53961;SDS011;39868;53.398;6.564;2022-08-21T07:05:58;6.03;;;3.10;;
53961;SDS011;39868;53.398;6.564;2022-08-21T07:08:26;4.10;;;2.58;;
53961;SDS011;39868;53.398;6.564;2022-08-21T07:10:55;4.47;;;2.95;;
53961;SDS011;39868;53.398;6.564;2022-08-21T07:13:24;6.90;;;3.22;;
53961;SDS011;39868;53.398;6.564;2022-08-21T07:15:52;7.28;;;3.08;;
53961;SDS011;39868;53.398;6.564;2022-08-21T07:18:19;4.93;;;2.85;;
53961;SDS011;39868;53.398;6.564;2022-08-21T07:20:47;8.10;;;3.22;;
53961;SDS011;39868;53.398;6.564;2022-08-21T07:23:34;6.68;;;3.22;;
53961;SDS011;39868;53.398;6.564;2022-08-21T07:26:08;4.10;;;2.60;;
53961;SDS011;39868;53.398;6.564;2022-08-21T07:28:35;5.78;;;2.75;;
53961;SDS011;39868;53.398;6.564;2022-08-21T07:31:03;5.75;;;2.65;;
53961;SDS011;39868;53.398;6.564;2022-08-21T07:33:32;5.43;;;2.60;;
53961;SDS011;39868;53.398;6.564;2022-08-21T07:36:01;3.33;;;2.45;;
53961;SDS011;39868;53.398;6.564;2022-08-21T07:38:29;4.97;;;3.00;;
53961;SDS011;39868;53.398;6.564;2022-08-21T07:40:57;7.80;;;3.47;;
53961;SDS011;39868;53.398;6.564;2022-08-21T07:43:27;4.97;;;3.00;;
53961;SDS011;39868;53.398;6.564;2022-08-21T07:45:56;5.43;;;2.95;;
53961;SDS011;39868;53.398;6.564;2022-08-21T07:48:24;4.35;;;2.85;;
53961;SDS011;39868;53.398;6.564;2022-08-21T07:50:51;4.13;;;3.00;;
53961;SDS011;39868;53.398;6.564;2022-08-21T07:53:19;5.72;;;2.80;;
53961;SDS011;39868;53.398;6.564;2022-08-21T07:55:47;6.68;;;3.00;;
53961;SDS011;39868;53.398;6.564;2022-08-21T07:58:14;11.43;;;2.90;;
53961;SDS011;39868;53.398;6.564;2022-08-21T08:00:42;6.97;;;3.05;;
53961;SDS011;39868;53.398;6.564;2022-08-21T08:03:10;5.20;;;2.60;;
53961;SDS011;39868;53.398;6.564;2022-08-21T08:05:38;5.00;;;2.88;;
53961;SDS011;39868;53.398;6.564;2022-08-21T08:08:06;6.05;;;2.80;;
53961;SDS011;39868;53.398;6.564;2022-08-21T08:10:34;6.63;;;3.42;;
53961;SDS011;39868;53.398;6.564;2022-08-21T08:13:03;3.55;;;2.88;;
53961;SDS011;39868;53.398;6.564;2022-08-21T08:18:03;4.13;;;2.25;;
53961;SDS011;39868;53.398;6.564;2022-08-21T08:20:31;6.72;;;2.70;;
53961;SDS011;39868;53.398;6.564;2022-08-21T08:22:59;4.40;;;2.90;;
53961;SDS011;39868;53.398;6.564;2022-08-21T08:25:27;4.82;;;3.22;;
53961;SDS011;39868;53.398;6.564;2022-08-21T08:28:03;6.50;;;3.60;;
53961;SDS011;39868;53.398;6.564;2022-08-21T08:30:44;9.52;;;3.42;;
53961;SDS011;39868;53.398;6.564;2022-08-21T08:33:14;3.55;;;3.22;;
53961;SDS011;39868;53.398;6.564;2022-08-21T08:35:45;9.48;;;3.30;;
53961;SDS011;39868;53.398;6.564;2022-08-21T08:38:15;10.27;;;3.50;;
53961;SDS011;39868;53.398;6.564;2022-08-21T08:43:29;6.70;;;3.80;;
53961;SDS011;39868;53.398;6.564;2022-08-21T08:45:59;7.38;;;3.80;;
53961;SDS011;39868;53.398;6.564;2022-08-21T08:48:33;7.13;;;3.08;;
53961;SDS011;39868;53.398;6.564;2022-08-21T08:51:03;6.50;;;3.25;;
53961;SDS011;39868;53.398;6.564;2022-08-21T08:53:54;4.57;;;3.55;;
53961;SDS011;39868;53.398;6.564;2022-08-21T08:56:28;3.28;;;3.00;;
53961;SDS011;39868;53.398;6.564;2022-08-21T08:59:08;7.47;;;3.92;;
53961;SDS011;39868;53.398;6.564;2022-08-21T09:02:00;3.78;;;3.20;;
53961;SDS011;39868;53.398;6.564;2022-08-21T09:04:28;6.88;;;3.60;;
53961;SDS011;39868;53.398;6.564;2022-08-21T09:07:00;4.75;;;3.50;;
53961;SDS011;39868;53.398;6.564;2022-08-21T09:16:00;7.28;;;3.78;;
53961;SDS011;39868;53.398;6.564;2022-08-21T09:24:49;6.68;;;4.40;;
53961;SDS011;39868;53.398;6.564;2022-08-21T09:27:48;4.28;;;3.88;;
53961;SDS011;39868;53.398;6.564;2022-08-21T09:30:18;4.28;;;3.75;;
53961;SDS011;39868;53.398;6.564;2022-08-21T09:32:50;5.50;;;3.90;;
53961;SDS011;39868;53.398;6.564;2022-08-21T09:35:19;4.78;;;3.90;;
53961;SDS011;39868;53.398;6.564;2022-08-21T09:37:50;5.45;;;3.85;;
53961;SDS011;39868;53.398;6.564;2022-08-21T09:40:55;4.50;;;4.03;;
53961;SDS011;39868;53.398;6.564;2022-08-21T09:43:22;5.47;;;3.88;;
53961;SDS011;39868;53.398;6.564;2022-08-21T09:46:08;5.88;;;3.75;;
53961;SDS011;39868;53.398;6.564;2022-08-21T09:48:42;4.10;;;3.70;;
53961;SDS011;39868;53.398;6.564;2022-08-21T09:51:15;4.22;;;3.85;;
53961;SDS011;39868;53.398;6.564;2022-08-21T09:54:27;4.50;;;3.50;;
53961;SDS011;39868;53.398;6.564;2022-08-21T09:56:36;4.32;;;3.90;;
53961;SDS011;39868;53.398;6.564;2022-08-21T10:04:57;5.32;;;3.30;;
53961;SDS011;39868;53.398;6.564;2022-08-21T10:07:28;5.88;;;3.30;;
53961;SDS011;39868;53.398;6.564;2022-08-21T10:10:05;8.20;;;3.70;;
53961;SDS011;39868;53.398;6.564;2022-08-21T10:18:11;6.53;;;2.85;;
53961;SDS011;39868;53.398;6.564;2022-08-21T10:29:03;4.93;;;3.55;;
53961;SDS011;39868;53.398;6.564;2022-08-21T10:32:02;4.55;;;3.33;;
53961;SDS011;39868;53.398;6.564;2022-08-21T10:34:55;6.30;;;3.22;;
53961;SDS011;39868;53.398;6.564;2022-08-21T10:37:42;6.55;;;3.10;;
53961;SDS011;39868;53.398;6.564;2022-08-21T10:43:40;7.50;;;3.20;;
53961;SDS011;39868;53.398;6.564;2022-08-21T10:46:16;4.22;;;3.05;;
53961;SDS011;39868;53.398;6.564;2022-08-21T10:49:14;5.93;;;3.15;;
53961;SDS011;39868;53.398;6.564;2022-08-21T10:57:11;3.35;;;2.50;;
53961;SDS011;39868;53.398;6.564;2022-08-21T11:00:00;3.28;;;2.50;;
53961;SDS011;39868;53.398;6.564;2022-08-21T11:05:29;4.38;;;2.45;;
53961;SDS011;39868;53.398;6.564;2022-08-21T11:08:24;5.35;;;2.83;;
53961;SDS011;39868;53.398;6.564;2022-08-21T11:10:54;8.43;;;2.72;;
53961;SDS011;39868;53.398;6.564;2022-08-21T11:13:31;5.18;;;2.83;;
53961;SDS011;39868;53.398;6.564;2022-08-21T11:18:59;5.53;;;2.80;;
53961;SDS011;39868;53.398;6.564;2022-08-21T11:22:08;5.97;;;3.08;;
53961;SDS011;39868;53.398;6.564;2022-08-21T11:27:23;5.93;;;2.88;;
53961;SDS011;39868;53.398;6.564;2022-08-21T11:30:02;5.03;;;2.67;;
53961;SDS011;39868;53.398;6.564;2022-08-21T11:46:19;7.57;;;2.58;;
53961;SDS011;39868;53.398;6.564;2022-08-21T11:51:36;4.63;;;2.97;;
53961;SDS011;39868;53.398;6.564;2022-08-21T11:56:59;2.72;;;2.45;;
53961;SDS011;39868;53.398;6.564;2022-08-21T11:59:40;8.23;;;2.47;;
53961;SDS011;39868;53.398;6.564;2022-08-21T12:02:14;3.88;;;1.75;;
53961;SDS011;39868;53.398;6.564;2022-08-21T12:04:46;4.30;;;1.70;;
53961;SDS011;39868;53.398;6.564;2022-08-21T12:07:38;2.72;;;1.95;;
53961;SDS011;39868;53.398;6.564;2022-08-21T12:10:12;4.47;;;2.10;;
53961;SDS011;39868;53.398;6.564;2022-08-21T12:12:47;2.38;;;1.88;;
53961;SDS011;39868;53.398;6.564;2022-08-21T12:23:01;2.88;;;1.95;;
53961;SDS011;39868;53.398;6.564;2022-08-21T12:25:42;3.92;;;2.50;;
53961;SDS011;39868;53.398;6.564;2022-08-21T12:28:15;3.88;;;2.05;;
53961;SDS011;39868;53.398;6.564;2022-08-21T12:30:50;7.28;;;2.20;;
53961;SDS011;39868;53.398;6.564;2022-08-21T12:35:52;2.10;;;1.98;;
53961;SDS011;39868;53.398;6.564;2022-08-21T12:38:31;5.00;;;2.38;;
53961;SDS011;39868;53.398;6.564;2022-08-21T12:41:14;3.42;;;2.00;;
53961;SDS011;39868;53.398;6.564;2022-08-21T12:43:53;4.75;;;2.33;;
53961;SDS011;39868;53.398;6.564;2022-08-21T12:46:39;3.42;;;2.30;;
53961;SDS011;39868;53.398;6.564;2022-08-21T12:49:26;2.80;;;2.00;;
53961;SDS011;39868;53.398;6.564;2022-08-21T12:52:12;6.50;;;2.17;;
53961;SDS011;39868;53.398;6.564;2022-08-21T12:54:47;5.10;;;2.30;;
53961;SDS011;39868;53.398;6.564;2022-08-21T12:57:20;3.13;;;2.10;;
53961;SDS011;39868;53.398;6.564;2022-08-21T12:59:54;4.60;;;2.28;;
53961;SDS011;39868;53.398;6.564;2022-08-21T13:02:26;7.63;;;2.58;;
53961;SDS011;39868;53.398;6.564;2022-08-21T13:05:03;5.45;;;2.58;;
53961;SDS011;39868;53.398;6.564;2022-08-21T13:07:34;3.13;;;2.70;;
53961;SDS011;39868;53.398;6.564;2022-08-21T13:10:06;4.05;;;2.25;;
53961;SDS011;39868;53.398;6.564;2022-08-21T13:13:15;4.32;;;2.85;;
53961;SDS011;39868;53.398;6.564;2022-08-21T13:15:57;4.10;;;2.20;;
53961;SDS011;39868;53.398;6.564;2022-08-21T13:18:32;3.58;;;2.30;;
53961;SDS011;39868;53.398;6.564;2022-08-21T13:21:19;3.85;;;2.50;;
53961;SDS011;39868;53.398;6.564;2022-08-21T13:23:48;2.80;;;2.35;;
53961;SDS011;39868;53.398;6.564;2022-08-21T13:26:17;4.95;;;2.65;;
53961;SDS011;39868;53.398;6.564;2022-08-21T13:28:47;2.95;;;2.15;;
53961;SDS011;39868;53.398;6.564;2022-08-21T13:31:27;3.03;;;2.45;;
53961;SDS011;39868;53.398;6.564;2022-08-21T13:33:57;3.95;;;2.58;;
53961;SDS011;39868;53.398;6.564;2022-08-21T13:36:26;5.93;;;2.25;;
53961;SDS011;39868;53.398;6.564;2022-08-21T13:39:02;5.28;;;2.97;;
53961;SDS011;39868;53.398;6.564;2022-08-21T13:41:32;6.30;;;3.33;;
53961;SDS011;39868;53.398;6.564;2022-08-21T13:44:04;7.65;;;2.50;;
53961;SDS011;39868;53.398;6.564;2022-08-21T13:46:46;4.20;;;2.90;;
53961;SDS011;39868;53.398;6.564;2022-08-21T13:49:17;5.13;;;3.00;;
53961;SDS011;39868;53.398;6.564;2022-08-21T13:51:47;5.07;;;2.60;;
53961;SDS011;39868;53.398;6.564;2022-08-21T13:54:24;5.32;;;2.78;;
53961;SDS011;39868;53.398;6.564;2022-08-21T13:56:55;5.53;;;3.30;;
53961;SDS011;39868;53.398;6.564;2022-08-21T13:59:27;7.53;;;3.10;;
53961;SDS011;39868;53.398;6.564;2022-08-21T14:02:00;7.05;;;2.65;;
53961;SDS011;39868;53.398;6.564;2022-08-21T14:04:43;3.55;;;3.05;;
53961;SDS011;39868;53.398;6.564;2022-08-21T14:09:54;6.97;;;2.97;;
53961;SDS011;39868;53.398;6.564;2022-08-21T14:12:26;4.97;;;2.70;;
53961;SDS011;39868;53.398;6.564;2022-08-21T14:15:01;5.18;;;2.70;;
53961;SDS011;39868;53.398;6.564;2022-08-21T14:17:32;7.57;;;3.40;;
53961;SDS011;39868;53.398;6.564;2022-08-21T14:20:05;6.78;;;2.50;;
53961;SDS011;39868;53.398;6.564;2022-08-21T14:25:13;3.35;;;2.80;;
53961;SDS011;39868;53.398;6.564;2022-08-21T14:27:55;5.53;;;2.95;;
53961;SDS011;39868;53.398;6.564;2022-08-21T14:30:39;4.75;;;2.60;;
53961;SDS011;39868;53.398;6.564;2022-08-21T14:33:09;4.28;;;2.47;;
53961;SDS011;39868;53.398;6.564;2022-08-21T14:35:39;3.80;;;2.45;;
53961;SDS011;39868;53.398;6.564;2022-08-21T14:38:14;6.53;;;2.60;;
53961;SDS011;39868;53.398;6.564;2022-08-21T14:40:44;4.72;;;2.80;;
53961;SDS011;39868;53.398;6.564;2022-08-21T14:43:20;4.80;;;2.75;;
53961;SDS011;39868;53.398;6.564;2022-08-21T14:45:48;8.68;;;2.75;;
53961;SDS011;39868;53.398;6.564;2022-08-21T14:48:16;6.65;;;2.83;;
53961;SDS011;39868;53.398;6.564;2022-08-21T14:50:43;4.50;;;2.70;;
53961;SDS011;39868;53.398;6.564;2022-08-21T14:53:11;5.78;;;2.92;;
53961;SDS011;39868;53.398;6.564;2022-08-21T14:55:39;3.17;;;2.70;;
53961;SDS011;39868;53.398;6.564;2022-08-21T14:58:25;6.55;;;2.85;;
53961;SDS011;39868;53.398;6.564;2022-08-21T15:00:53;4.65;;;2.63;;
53961;SDS011;39868;53.398;6.564;2022-08-21T15:03:23;5.10;;;2.33;;
53961;SDS011;39868;53.398;6.564;2022-08-21T15:05:52;5.45;;;2.53;;
53961;SDS011;39868;53.398;6.564;2022-08-21T15:08:19;5.68;;;2.47;;
53961;SDS011;39868;53.398;6.564;2022-08-21T15:10:47;3.95;;;2.20;;
53961;SDS011;39868;53.398;6.564;2022-08-21T15:13:35;4.03;;;2.50;;
53961;SDS011;39868;53.398;6.564;2022-08-21T15:16:03;3.60;;;2.40;;
53961;SDS011;39868;53.398;6.564;2022-08-21T15:18:31;6.07;;;3.20;;
53961;SDS011;39868;53.398;6.564;2022-08-21T15:20:59;4.53;;;2.50;;
53961;SDS011;39868;53.398;6.564;2022-08-21T15:23:26;5.22;;;2.55;;
53961;SDS011;39868;53.398;6.564;2022-08-21T15:25:54;4.38;;;2.03;;
53961;SDS011;39868;53.398;6.564;2022-08-21T15:28:26;4.25;;;2.45;;
53961;SDS011;39868;53.398;6.564;2022-08-21T15:30:58;5.28;;;3.13;;
53961;SDS011;39868;53.398;6.564;2022-08-21T15:33:27;4.97;;;2.70;;
53961;SDS011;39868;53.398;6.564;2022-08-21T15:35:55;7.70;;;2.78;;
53961;SDS011;39868;53.398;6.564;2022-08-21T15:38:23;5.80;;;2.88;;
53961;SDS011;39868;53.398;6.564;2022-08-21T15:40:51;5.43;;;2.72;;
53961;SDS011;39868;53.398;6.564;2022-08-21T15:43:26;5.90;;;2.80;;
53961;SDS011;39868;53.398;6.564;2022-08-21T15:46:00;5.75;;;2.40;;
53961;SDS011;39868;53.398;6.564;2022-08-21T15:48:28;6.05;;;2.70;;
53961;SDS011;39868;53.398;6.564;2022-08-21T15:50:56;3.30;;;2.40;;
53961;SDS011;39868;53.398;6.564;2022-08-21T15:53:24;5.03;;;2.50;;
53961;SDS011;39868;53.398;6.564;2022-08-21T15:55:51;4.82;;;2.78;;
53961;SDS011;39868;53.398;6.564;2022-08-21T15:58:19;3.72;;;2.60;;
53961;SDS011;39868;53.398;6.564;2022-08-21T16:00:49;4.15;;;2.78;;
53961;SDS011;39868;53.398;6.564;2022-08-21T16:03:17;5.18;;;2.90;;
53961;SDS011;39868;53.398;6.564;2022-08-21T16:05:48;7.13;;;3.28;;
53961;SDS011;39868;53.398;6.564;2022-08-21T16:08:19;8.95;;;2.70;;
53961;SDS011;39868;53.398;6.564;2022-08-21T16:10:47;6.20;;;2.95;;
53961;SDS011;39868;53.398;6.564;2022-08-21T16:13:25;6.60;;;2.80;;
53961;SDS011;39868;53.398;6.564;2022-08-21T16:15:57;5.20;;;2.50;;
53961;SDS011;39868;53.398;6.564;2022-08-21T16:18:24;4.22;;;3.05;;
53961;SDS011;39868;53.398;6.564;2022-08-21T16:20:53;4.65;;;3.10;;
53961;SDS011;39868;53.398;6.564;2022-08-21T16:23:20;5.43;;;2.80;;
53961;SDS011;39868;53.398;6.564;2022-08-21T16:25:49;3.42;;;2.92;;
53961;SDS011;39868;53.398;6.564;2022-08-21T16:28:18;4.55;;;2.80;;
53961;SDS011;39868;53.398;6.564;2022-08-21T16:30:48;4.97;;;3.00;;
53961;SDS011;39868;53.398;6.564;2022-08-21T16:36:03;6.22;;;3.10;;
53961;SDS011;39868;53.398;6.564;2022-08-21T16:38:32;5.40;;;2.90;;
53961;SDS011;39868;53.398;6.564;2022-08-21T16:41:04;6.43;;;2.72;;
53961;SDS011;39868;53.398;6.564;2022-08-21T16:43:33;3.30;;;3.10;;
53961;SDS011;39868;53.398;6.564;2022-08-21T16:46:02;3.92;;;3.42;;
53961;SDS011;39868;53.398;6.564;2022-08-21T16:48:29;6.38;;;3.05;;
53961;SDS011;39868;53.398;6.564;2022-08-21T16:50:57;4.30;;;2.90;;